Hackett, Wisconsin
Current Conditions -  °F | °C
As of 7:35 PM on Wednesday 26 Nov 2014 (Local Time) from KPBH Reporting Station
Light Snow Light Snow  
Wind Chill:   Ceiling: 1500
Heat Index: 19°   Visibility: 7mi
Dew Point: 15°   Wind: 10mph
Humidity: 85%   Direction: 340°NNW
Pressure: 30.18"   Gusts: NA
Location:  45.7439°N, 90.2959°W
Report Text: KPBH 270135Z AUTO 34009KT 7SM -SN OVC015 M07/M09 A3018 RMK AO2 T10721093
Loading
Personal Weather Stations






























Interactive Weather Map New forecast layout! Learn more

10-Day Weather Forecast

Advertisements
Track Severe Weather on mobile